Time;durP1;ratioP1;P1;durP2;ratioP2;P2;SDS_P1;SDS_P2;PMS_P1;PMS_P2;Temp;Humidity;BMP_temperature;BMP_pressure;BME280_temperature;BME280_humidity;BME280_pressure;Samples;Min_cycle;Max_cycle;Signal;HPM_P1;HPM_P2
2020/12/25 00:01:11;;;;;;;0.20;0.00;;;4.30;99.90;;;;;;10477373;28;20040;-52
2020/12/25 00:06:35;;;;;;;0.55;0.43;;;4.30;99.90;;;;;;10485060;28;20070;-52
2020/12/25 00:11:57;;;;;;;0.95;0.10;;;4.20;99.90;;;;;;10452811;28;20037;-52
2020/12/25 00:17:18;;;;;;;0.55;0.55;;;4.20;99.90;;;;;;10479829;28;20111;-52
2020/12/25 00:22:39;;;;;;;0.50;0.10;;;4.10;99.90;;;;;;10483949;28;20040;-52
2020/12/25 00:27:59;;;;;;;0.10;0.03;;;4.10;99.90;;;;;;10484543;28;20033;-52
2020/12/25 00:33:20;;;;;;;0.25;0.10;;;4.00;99.90;;;;;;10483624;28;20093;-52
2020/12/25 00:38:41;;;;;;;0.00;0.00;;;4.00;99.90;;;;;;10459199;28;20048;-52
2020/12/25 00:44:02;;;;;;;0.03;0.00;;;4.00;99.90;;;;;;10472887;28;20040;-52
2020/12/25 00:49:23;;;;;;;1.08;0.35;;;3.90;99.90;;;;;;10458412;28;20119;-52
2020/12/25 00:54:44;;;;;;;0.98;0.20;;;3.90;99.90;;;;;;10474701;28;20032;-52
2020/12/25 01:00:05;;;;;;;0.40;0.10;;;3.80;99.90;;;;;;10456466;28;20044;-52
2020/12/25 01:05:26;;;;;;;0.20;0.10;;;3.90;99.90;;;;;;10460934;28;20040;-52
2020/12/25 01:10:47;;;;;;;0.30;0.10;;;3.90;99.90;;;;;;10469746;28;20036;-52
2020/12/25 01:16:15;;;;;;;0.17;0.10;;;3.90;99.90;;;;;;10466762;28;20029;-52
2020/12/25 01:21:35;;;;;;;1.75;1.33;;;3.90;99.90;;;;;;10475842;28;20120;-52
2020/12/25 01:26:56;;;;;;;0.20;0.08;;;3.70;99.90;;;;;;10480843;28;20032;-52
2020/12/25 01:32:17;;;;;;;7.10;0.15;;;3.80;99.90;;;;;;10481923;28;20036;-52
2020/12/25 01:37:38;;;;;;;0.13;0.10;;;3.80;99.90;;;;;;10466099;28;20048;-52
2020/12/25 01:42:59;;;;;;;0.10;0.08;;;3.90;99.90;;;;;;10481076;28;20036;-52
2020/12/25 01:48:21;;;;;;;1.00;0.38;;;4.00;99.90;;;;;;10472374;28;20075;-52
2020/12/25 01:53:43;;;;;;;0.80;0.10;;;4.00;99.90;;;;;;10478144;28;20036;-52
2020/12/25 01:59:03;;;;;;;0.20;0.10;;;4.10;99.90;;;;;;10479389;28;20545;-52
2020/12/25 02:04:24;;;;;;;0.65;0.20;;;4.10;99.90;;;;;;10477723;28;20098;-52
2020/12/25 02:09:45;;;;;;;0.00;0.00;;;4.20;99.90;;;;;;10481451;28;20036;-52
2020/12/25 02:15:08;;;;;;;0.10;0.10;;;4.10;99.90;;;;;;10489352;28;20513;-52
2020/12/25 02:20:29;;;;;;;0.52;0.28;;;4.10;99.90;;;;;;10472419;28;20534;-52
2020/12/25 02:25:50;;;;;;;3.63;0.60;;;4.10;99.90;;;;;;10488513;28;20048;-52
2020/12/25 02:31:11;;;;;;;0.10;0.00;;;4.00;99.90;;;;;;10438526;28;20606;-52
2020/12/25 02:36:32;;;;;;;0.43;0.38;;;3.90;99.90;;;;;;10487550;28;20033;-52
2020/12/25 02:41:52;;;;;;;0.10;0.00;;;3.80;99.90;;;;;;10487868;28;20424;-52
2020/12/25 02:47:13;;;;;;;1.00;0.10;;;3.70;99.90;;;;;;10469865;28;20036;-52
2020/12/25 02:52:34;;;;;;;0.43;0.00;;;3.50;99.90;;;;;;10459685;28;20378;-52
2020/12/25 02:57:55;;;;;;;0.52;0.20;;;3.40;99.90;;;;;;10471983;28;20029;-52
2020/12/25 03:03:16;;;;;;;0.00;0.00;;;3.20;99.90;;;;;;10467845;28;20554;-52
2020/12/25 03:08:37;;;;;;;0.25;0.10;;;3.10;99.90;;;;;;10487737;28;20029;-52
2020/12/25 03:13:58;;;;;;;0.17;0.10;;;3.00;99.90;;;;;;10484939;28;20078;-52
2020/12/25 03:19:19;;;;;;;0.00;0.00;;;3.00;99.90;;;;;;10476793;28;20128;-52
2020/12/25 03:24:40;;;;;;;1.20;0.47;;;3.10;99.90;;;;;;10485890;28;20032;-52
2020/12/25 03:30:02;;;;;;;0.38;0.10;;;3.20;99.90;;;;;;10486343;28;20028;-52
2020/12/25 03:35:23;;;;;;;0.55;0.08;;;3.30;99.90;;;;;;10460011;28;20037;-52
2020/12/25 03:40:45;;;;;;;0.20;0.10;;;3.40;99.90;;;;;;10461565;28;20465;-52
2020/12/25 03:46:06;;;;;;;0.03;0.00;;;3.50;99.90;;;;;;10475288;28;20056;-52
2020/12/25 03:51:27;;;;;;;0.40;0.30;;;3.40;99.90;;;;;;10475598;28;20258;-52
2020/12/25 03:56:47;;;;;;;0.65;0.10;;;3.30;99.90;;;;;;10467872;28;20033;-52
2020/12/25 04:02:08;;;;;;;0.30;0.10;;;3.20;99.90;;;;;;10474413;28;20036;-52
2020/12/25 04:07:29;;;;;;;2.28;0.20;;;3.10;99.90;;;;;;10469101;28;20035;-52
2020/12/25 04:12:50;;;;;;;1.52;0.20;;;2.90;99.90;;;;;;10478099;28;20037;-52
2020/12/25 04:18:11;;;;;;;0.43;0.10;;;2.80;99.90;;;;;;10483637;28;20729;-52
2020/12/25 04:23:32;;;;;;;0.52;0.03;;;2.70;99.90;;;;;;10484580;28;20033;-52
2020/12/25 04:28:53;;;;;;;1.25;0.65;;;2.70;99.90;;;;;;10484309;28;20024;-52
2020/12/25 04:34:14;;;;;;;0.20;0.13;;;2.70;99.90;;;;;;10468447;28;20116;-52
2020/12/25 04:39:35;;;;;;;0.70;0.20;;;2.60;99.90;;;;;;10449114;28;20467;-52
2020/12/25 04:44:57;;;;;;;0.40;0.10;;;2.70;99.90;;;;;;10463040;28;20033;-52
2020/12/25 04:50:18;;;;;;;0.60;0.43;;;2.80;99.90;;;;;;10479900;28;20047;-52
2020/12/25 04:55:39;;;;;;;1.00;0.57;;;2.80;99.90;;;;;;10447978;28;20032;-52
2020/12/25 05:01:05;;;;;;;0.00;0.00;;;2.90;99.90;;;;;;10474578;28;20048;-52
2020/12/25 05:06:28;;;;;;;0.10;0.00;;;3.10;99.90;;;;;;10482204;28;20663;-52
2020/12/25 05:12:11;;;;;;;1.45;0.40;;;3.20;99.90;;;;;;10467353;28;20040;-52
2020/12/25 05:17:33;;;;;;;0.22;0.13;;;3.20;99.90;;;;;;10482316;28;20058;-52
2020/12/25 05:23:09;;;;;;;0.57;0.20;;;3.30;99.90;;;;;;10452449;28;20049;-52
2020/12/25 05:28:30;;;;;;;0.20;0.10;;;3.20;99.90;;;;;;10465345;28;20039;-52
2020/12/25 05:33:51;;;;;;;0.10;0.10;;;3.20;99.90;;;;;;10467747;28;20060;-52
2020/12/25 05:39:27;;;;;;;0.00;0.00;;;3.00;99.90;;;;;;10479828;28;20068;-52
2020/12/25 05:44:49;;;;;;;0.30;0.10;;;3.00;99.90;;;;;;10486607;28;20036;-52
2020/12/25 05:50:10;;;;;;;0.10;0.00;;;3.00;99.90;;;;;;10496091;28;20039;-52
2020/12/25 05:55:31;;;;;;;0.75;0.47;;;2.90;99.90;;;;;;10496313;28;20082;-52
2020/12/25 06:00:54;;;;;;;3.83;0.10;;;2.80;99.90;;;;;;10482185;28;20033;-52
2020/12/25 06:06:20;;;;;;;0.17;0.15;;;2.70;99.90;;;;;;10478459;28;20171;-52
2020/12/25 06:11:49;;;;;;;0.00;0.00;;;2.70;99.90;;;;;;10491653;28;20113;-52
2020/12/25 06:17:19;;;;;;;0.52;0.45;;;2.70;99.90;;;;;;10494190;28;20159;-52
2020/12/25 06:22:44;;;;;;;0.40;0.00;;;2.70;99.90;;;;;;10495176;28;20387;-52
2020/12/25 06:28:06;;;;;;;0.00;0.00;;;2.60;99.90;;;;;;10494980;28;20036;-52
2020/12/25 06:33:31;;;;;;;4.55;0.22;;;2.60;99.90;;;;;;10484237;28;20231;-52
2020/12/25 06:38:52;;;;;;;0.38;0.25;;;2.60;99.90;;;;;;10482324;28;20106;-52
2020/12/25 06:44:16;;;;;;;0.70;0.52;;;2.60;99.90;;;;;;10472867;28;20086;-52
2020/12/25 06:49:37;;;;;;;1.45;0.03;;;2.60;99.90;;;;;;10457158;28;20129;-52
2020/12/25 06:54:58;;;;;;;0.63;0.32;;;2.60;99.90;;;;;;10493081;28;20040;-52
2020/12/25 07:00:21;;;;;;;0.40;0.20;;;2.60;99.90;;;;;;10442708;28;20513;-52
2020/12/25 07:05:48;;;;;;;0.45;0.20;;;2.60;99.90;;;;;;10454703;28;20033;-52
2020/12/25 07:11:10;;;;;;;3.67;0.47;;;2.50;99.90;;;;;;10481897;28;20252;-52
2020/12/25 07:16:34;;;;;;;1.75;0.22;;;2.50;99.90;;;;;;10480424;28;20025;-52
2020/12/25 07:21:56;;;;;;;0.10;0.03;;;2.30;99.90;;;;;;10481929;28;20043;-52
2020/12/25 07:27:17;;;;;;;3.85;0.98;;;2.20;99.90;;;;;;10481383;28;20055;-52
2020/12/25 07:32:39;;;;;;;0.63;0.10;;;2.10;99.90;;;;;;10456404;28;20033;-52
2020/12/25 07:38:00;;;;;;;0.00;0.00;;;2.00;99.90;;;;;;10480780;28;20070;-52
2020/12/25 07:43:20;;;;;;;0.90;0.10;;;2.00;99.90;;;;;;10451808;28;20037;-52
2020/12/25 07:48:41;;;;;;;0.13;0.00;;;1.90;99.90;;;;;;10466067;28;20016;-52
2020/12/25 07:54:03;;;;;;;0.15;0.00;;;1.80;99.90;;;;;;10467671;28;20037;-52
2020/12/25 07:59:25;;;;;;;0.20;0.10;;;1.70;99.90;;;;;;10458348;28;20051;-52
2020/12/25 08:04:46;;;;;;;0.65;0.15;;;1.70;99.90;;;;;;10480345;28;20115;-52
2020/12/25 08:10:11;;;;;;;9.30;0.40;;;1.80;99.90;;;;;;10467952;28;20044;-52
2020/12/25 08:15:33;;;;;;;4.95;0.40;;;1.90;99.90;;;;;;10437563;28;20506;-52
2020/12/25 08:20:54;;;;;;;0.00;0.00;;;2.00;99.90;;;;;;10478148;28;20048;-52
2020/12/25 08:26:15;;;;;;;1.05;0.35;;;2.20;99.90;;;;;;10477805;28;20493;-52
2020/12/25 08:31:38;;;;;;;1.20;0.10;;;2.30;99.90;;;;;;10479620;28;20341;-52
2020/12/25 08:37:01;;;;;;;0.05;0.05;;;2.30;99.90;;;;;;10449973;28;20041;-52
2020/12/25 08:42:22;;;;;;;0.00;0.00;;;2.40;99.90;;;;;;10453688;28;20064;-52
2020/12/25 08:47:43;;;;;;;1.80;0.93;;;2.40;99.90;;;;;;10455250;28;20120;-52
2020/12/25 08:53:11;;;;;;;0.52;0.10;;;2.40;99.90;;;;;;10468218;28;20052;-52
2020/12/25 08:58:32;;;;;;;0.55;0.20;;;2.50;99.90;;;;;;10436338;28;20041;-52
2020/12/25 09:03:54;;;;;;;0.00;0.00;;;2.60;99.90;;;;;;10477576;28;20052;-52
2020/12/25 09:09:15;;;;;;;0.25;0.10;;;2.70;99.90;;;;;;10476516;28;20119;-52
2020/12/25 09:14:36;;;;;;;1.15;0.25;;;2.80;99.90;;;;;;10475002;28;20119;-52
2020/12/25 09:19:57;;;;;;;0.20;0.10;;;3.00;99.90;;;;;;10475310;28;20036;-52
2020/12/25 09:25:18;;;;;;;1.98;0.55;;;3.20;99.90;;;;;;10477980;28;20059;-52
2020/12/25 09:30:39;;;;;;;6.45;1.45;;;3.40;99.90;;;;;;10476354;28;20499;-52
2020/12/25 09:36:01;;;;;;;0.28;0.28;;;3.70;99.90;;;;;;10459943;28;20045;-52
2020/12/25 09:41:22;;;;;;;1.13;0.20;;;3.90;99.90;;;;;;10467794;28;20111;-52
2020/12/25 09:46:43;;;;;;;9.30;0.63;;;4.20;99.90;;;;;;10467671;28;20060;-52
2020/12/25 09:52:04;;;;;;;4.90;0.28;;;4.50;99.90;;;;;;10480264;28;20032;-52
2020/12/25 09:57:25;;;;;;;0.30;0.15;;;4.70;99.90;;;;;;10453050;28;20510;-52
2020/12/25 10:02:46;;;;;;;0.70;0.22;;;4.80;99.90;;;;;;10479654;28;20080;-52
2020/12/25 10:08:07;;;;;;;0.25;0.10;;;5.00;99.90;;;;;;10477778;28;20036;-52
2020/12/25 10:13:28;;;;;;;3.05;0.75;;;5.30;99.90;;;;;;10463254;28;20044;-52
2020/12/25 10:18:49;;;;;;;0.93;0.25;;;5.50;99.90;;;;;;10480195;28;20044;-52
2020/12/25 10:24:10;;;;;;;0.05;0.03;;;5.80;99.90;;;;;;10460570;28;20029;-52
2020/12/25 10:29:31;;;;;;;2.08;0.80;;;6.20;99.90;;;;;;10481555;28;20116;-52
2020/12/25 10:34:52;;;;;;;1.42;0.20;;;6.40;99.90;;;;;;10488798;28;20036;-52
2020/12/25 10:40:13;;;;;;;1.20;0.20;;;6.80;99.90;;;;;;10482685;28;20095;-52
2020/12/25 10:45:34;;;;;;;1.13;0.22;;;7.40;99.90;;;;;;10480304;28;20037;-52
2020/12/25 10:50:55;;;;;;;0.43;0.10;;;7.80;99.90;;;;;;10459966;28;20051;-53
2020/12/25 10:56:26;;;;;;;1.88;0.55;;;8.30;99.90;;;;;;10456400;28;20029;-52
2020/12/25 11:01:48;;;;;;;0.63;0.20;;;8.70;99.90;;;;;;10485529;28;20151;-52
2020/12/25 11:07:09;;;;;;;0.52;0.30;;;9.50;99.90;;;;;;10472489;28;20036;-52
2020/12/25 11:12:30;;;;;;;3.33;0.47;;;10.40;99.90;;;;;;10460677;28;20563;-52
2020/12/25 11:17:50;;;;;;;2.85;1.17;;;10.70;99.90;;;;;;10485902;28;20366;-53
2020/12/25 11:23:11;;;;;;;2.35;0.30;;;11.00;99.90;;;;;;10486807;28;20032;-53
2020/12/25 11:28:32;;;;;;;3.28;0.35;;;11.70;99.90;;;;;;10486910;28;20039;-53
2020/12/25 11:33:55;;;;;;;0.77;0.25;;;11.80;99.90;;;;;;10464583;28;20124;-53
2020/12/25 11:39:16;;;;;;;0.73;0.32;;;11.50;99.90;;;;;;10455048;28;20044;-53
2020/12/25 11:44:36;;;;;;;0.35;0.10;;;12.00;99.90;;;;;;10445199;28;20201;-52
2020/12/25 11:49:58;;;;;;;0.45;0.15;;;12.00;99.90;;;;;;10451471;28;20086;-53
2020/12/25 11:55:19;;;;;;;4.53;0.25;;;11.70;99.90;;;;;;10482822;28;20127;-52
2020/12/25 12:00:40;;;;;;;0.47;0.20;;;10.80;99.90;;;;;;10484863;28;20043;-52
2020/12/25 12:06:01;;;;;;;1.63;0.20;;;9.50;99.90;;;;;;10484364;28;20051;-52
2020/12/25 12:11:22;;;;;;;0.28;0.08;;;8.90;99.90;;;;;;10462523;28;20492;-52
2020/12/25 12:16:43;;;;;;;0.70;0.20;;;8.50;99.90;;;;;;10484972;28;20029;-52
2020/12/25 12:22:04;;;;;;;1.63;0.08;;;8.20;99.90;;;;;;10470385;28;20777;-52
2020/12/25 12:27:25;;;;;;;1.77;0.10;;;7.90;99.90;;;;;;10483110;28;20111;-52
2020/12/25 12:32:46;;;;;;;0.95;0.10;;;7.70;99.90;;;;;;10483034;28;20033;-52
2020/12/25 12:38:07;;;;;;;2.08;0.47;;;7.30;99.90;;;;;;10449155;28;20051;-52
2020/12/25 12:43:28;;;;;;;0.40;0.05;;;7.00;99.90;;;;;;10469148;28;20036;-52
2020/12/25 12:48:49;;;;;;;0.20;0.20;;;7.80;99.90;;;;;;10455151;28;20127;-52
2020/12/25 12:54:10;;;;;;;2.72;0.00;;;9.80;99.90;;;;;;10481493;28;20032;-53
2020/12/25 12:59:31;;;;;;;0.80;0.45;;;11.20;99.90;;;;;;10482287;28;20040;-52
2020/12/25 13:04:52;;;;;;;0.32;0.22;;;11.90;99.90;;;;;;10476790;28;20542;-53
2020/12/25 13:10:13;;;;;;;0.63;0.10;;;12.50;99.90;;;;;;10462003;28;20461;-52
2020/12/25 13:15:34;;;;;;;0.28;0.20;;;12.40;99.90;;;;;;10479615;28;20495;-52
2020/12/25 13:20:55;;;;;;;0.38;0.00;;;12.60;99.90;;;;;;10482054;28;20048;-52
2020/12/25 13:26:17;;;;;;;0.00;0.00;;;11.00;99.90;;;;;;10480640;28;20120;-52
2020/12/25 13:31:38;;;;;;;0.10;0.00;;;9.40;99.90;;;;;;10482465;28;20043;-52
2020/12/25 13:36:59;;;;;;;0.00;0.00;;;8.60;99.90;;;;;;10481826;28;20037;-52
2020/12/25 13:42:20;;;;;;;0.32;0.00;;;7.90;99.90;;;;;;10458399;28;20045;-52
2020/12/25 13:47:41;;;;;;;0.00;0.00;;;7.70;99.90;;;;;;10443506;28;20497;-52
2020/12/25 13:53:02;;;;;;;0.05;0.00;;;7.70;99.90;;;;;;10442005;28;20136;-52
2020/12/25 13:58:23;;;;;;;1.13;0.10;;;7.80;99.90;;;;;;10472775;28;20060;-52
2020/12/25 14:03:44;;;;;;;0.47;0.30;;;7.60;99.90;;;;;;10459083;28;20068;-52
2020/12/25 14:09:05;;;;;;;0.85;0.20;;;7.30;99.90;;;;;;10470313;28;20559;-52
2020/12/25 14:14:26;;;;;;;1.90;0.20;;;6.90;99.90;;;;;;10462560;28;20506;-52
2020/12/25 14:19:47;;;;;;;0.55;0.10;;;6.70;99.90;;;;;;10485881;28;20426;-52
2020/12/25 14:25:08;;;;;;;0.35;0.10;;;6.40;99.90;;;;;;10488748;28;20064;-52
2020/12/25 14:30:29;;;;;;;1.52;0.20;;;6.30;99.90;;;;;;10470948;28;20044;-52
2020/12/25 14:35:50;;;;;;;1.35;0.20;;;6.30;99.90;;;;;;10466621;28;20039;-52
2020/12/25 14:41:11;;;;;;;4.07;0.10;;;6.30;99.90;;;;;;10474162;28;20055;-52
2020/12/25 14:46:32;;;;;;;0.38;0.10;;;6.20;99.90;;;;;;10461347;28;20061;-52
2020/12/25 14:51:52;;;;;;;0.55;0.20;;;6.10;99.90;;;;;;10448074;28;20037;-52
2020/12/25 14:57:14;;;;;;;0.32;0.25;;;6.00;99.90;;;;;;10464726;28;20032;-52
2020/12/25 15:02:35;;;;;;;0.22;0.00;;;5.90;99.90;;;;;;10486773;28;20028;-52
2020/12/25 15:07:56;;;;;;;0.40;0.17;;;5.90;99.90;;;;;;10469499;28;20054;-51
2020/12/25 15:13:17;;;;;;;0.40;0.10;;;6.00;99.90;;;;;;10485291;28;20037;-52
2020/12/25 15:18:37;;;;;;;0.85;0.20;;;5.80;99.90;;;;;;10486258;28;20064;-52
2020/12/25 15:23:58;;;;;;;0.57;0.20;;;5.70;99.90;;;;;;10487180;28;20025;-52
2020/12/25 15:29:19;;;;;;;1.63;0.20;;;5.70;99.90;;;;;;10486209;28;20541;-52
2020/12/25 15:34:40;;;;;;;0.70;0.28;;;5.70;99.90;;;;;;10481423;28;20052;-52
2020/12/25 15:40:01;;;;;;;1.55;0.13;;;5.70;99.90;;;;;;10447874;28;20045;-52
2020/12/25 15:45:25;;;;;;;1.42;0.25;;;5.70;99.90;;;;;;10444225;28;20036;-52
2020/12/25 15:50:46;;;;;;;0.68;0.30;;;5.60;99.90;;;;;;10484664;28;20404;-52
2020/12/25 15:56:07;;;;;;;0.88;0.43;;;5.50;99.90;;;;;;10484533;28;20067;-52
2020/12/25 16:01:35;;;;;;;1.17;0.40;;;5.50;99.90;;;;;;10469017;28;20093;-52
2020/12/25 16:06:56;;;;;;;0.52;0.25;;;5.40;99.90;;;;;;10469728;28;20230;-52
2020/12/25 16:12:17;;;;;;;0.93;0.30;;;5.40;99.90;;;;;;10481805;28;20033;-51
2020/12/25 16:17:39;;;;;;;2.95;0.73;;;5.30;99.90;;;;;;10483812;28;20079;-52
2020/12/25 16:23:00;;;;;;;1.75;0.60;;;5.30;99.90;;;;;;10483254;28;20044;-52
2020/12/25 16:28:21;;;;;;;2.25;0.60;;;5.20;99.90;;;;;;10485173;28;20040;-52
2020/12/25 16:33:42;;;;;;;3.80;1.55;;;5.10;99.90;;;;;;10472181;28;20059;-51
2020/12/25 16:39:03;;;;;;;4.22;0.93;;;5.10;99.90;;;;;;10447002;28;20037;-52
2020/12/25 16:44:24;;;;;;;2.30;0.60;;;5.10;99.90;;;;;;10471119;28;20537;-51
2020/12/25 16:49:45;;;;;;;2.78;0.90;;;5.00;99.90;;;;;;10424213;28;20043;-52
2020/12/25 16:55:06;;;;;;;5.47;0.77;;;5.00;99.90;;;;;;10442826;28;20040;-51
2020/12/25 17:00:27;;;;;;;3.10;0.80;;;5.00;99.90;;;;;;10475860;28;20436;-51
2020/12/25 17:05:49;;;;;;;2.13;1.00;;;5.00;99.90;;;;;;10479402;28;20037;-52
2020/12/25 17:11:10;;;;;;;3.97;1.05;;;4.90;99.90;;;;;;10450507;28;20417;-51
2020/12/25 17:16:36;;;;;;;1.27;0.75;;;5.00;99.90;;;;;;10456636;28;20733;-51
2020/12/25 17:21:57;;;;;;;1.30;0.77;;;4.90;99.90;;;;;;10459686;28;20040;-51
2020/12/25 17:27:21;;;;;;;2.08;0.90;;;4.80;99.90;;;;;;10471939;28;20048;-51
2020/12/25 17:32:42;;;;;;;7.72;1.02;;;4.70;99.90;;;;;;10468349;28;20033;-51
2020/12/25 17:38:03;;;;;;;1.30;0.57;;;4.60;99.90;;;;;;10473019;28;20126;-52
2020/12/25 17:43:24;;;;;;;1.25;0.70;;;4.50;99.90;;;;;;10469192;28;20084;-51
2020/12/25 17:48:46;;;;;;;4.15;0.80;;;4.30;99.90;;;;;;10457018;28;20472;-51
2020/12/25 17:54:07;;;;;;;1.08;0.52;;;4.20;99.90;;;;;;10464373;28;20068;-51
2020/12/25 17:59:28;;;;;;;1.80;0.73;;;4.10;99.90;;;;;;10453942;28;20025;-51
2020/12/25 18:04:50;;;;;;;2.75;1.48;;;4.00;99.90;;;;;;10473996;28;20051;-51
2020/12/25 18:10:11;;;;;;;6.25;1.75;;;3.90;99.90;;;;;;10458644;28;20481;-51
2020/12/25 18:15:32;;;;;;;2.78;1.00;;;3.80;99.90;;;;;;10463035;28;20028;-51
2020/12/25 18:20:56;;;;;;;1.58;0.90;;;3.70;99.90;;;;;;10479290;28;20144;-51
2020/12/25 18:26:18;;;;;;;1.77;0.80;;;3.60;99.90;;;;;;10476261;28;20162;-51
2020/12/25 18:31:39;;;;;;;2.50;1.60;;;3.50;99.90;;;;;;10468592;28;20060;-51
2020/12/25 18:36:59;;;;;;;5.78;1.52;;;3.40;99.90;;;;;;10479257;28;20028;-51
2020/12/25 18:42:20;;;;;;;2.00;0.85;;;3.40;99.90;;;;;;10479694;28;20053;-51
2020/12/25 18:47:41;;;;;;;2.80;1.70;;;3.50;99.90;;;;;;10468304;28;20155;-51
2020/12/25 18:53:02;;;;;;;5.72;1.30;;;3.60;99.90;;;;;;10477270;28;20444;-51
2020/12/25 18:58:24;;;;;;;5.18;2.20;;;3.60;99.90;;;;;;10483712;28;20029;-51
2020/12/25 19:03:45;;;;;;;6.05;2.88;;;3.50;99.90;;;;;;10447196;28;20033;-51
2020/12/25 19:09:06;;;;;;;2.95;1.33;;;3.40;99.90;;;;;;10486977;28;20549;-51
2020/12/25 19:14:30;;;;;;;2.47;1.08;;;3.30;99.90;;;;;;10485983;28;20966;-51
2020/12/25 19:19:51;;;;;;;5.60;1.67;;;3.20;99.90;;;;;;10475101;28;20043;-51
2020/12/25 19:25:12;;;;;;;3.42;1.77;;;3.10;99.90;;;;;;10486328;28;20086;-51
2020/12/25 19:30:33;;;;;;;3.33;1.13;;;3.00;99.90;;;;;;10484148;28;20081;-51
2020/12/25 19:35:54;;;;;;;1.25;0.85;;;2.90;99.90;;;;;;10478901;28;20059;-51
2020/12/25 19:41:15;;;;;;;4.43;2.15;;;2.80;99.90;;;;;;10449852;28;20554;-52
2020/12/25 19:46:37;;;;;;;9.32;2.97;;;2.80;99.90;;;;;;10472334;28;20469;-51
2020/12/25 19:52:00;;;;;;;5.07;2.55;;;2.70;99.90;;;;;;10484322;28;20033;-51
2020/12/25 19:57:22;;;;;;;5.45;2.53;;;2.60;99.90;;;;;;10460308;28;20112;-51
2020/12/25 20:02:45;;;;;;;5.38;2.38;;;2.50;99.90;;;;;;10483021;28;20220;-51
2020/12/25 20:08:06;;;;;;;4.18;2.00;;;2.40;99.90;;;;;;10483542;28;20028;-51
2020/12/25 20:13:27;;;;;;;9.07;2.60;;;2.40;99.90;;;;;;10484837;28;20027;-51
2020/12/25 20:18:48;;;;;;;6.80;2.40;;;2.30;99.90;;;;;;10484910;28;20067;-51
2020/12/25 20:24:09;;;;;;;6.80;2.83;;;2.30;99.90;;;;;;10484882;28;20029;-51
2020/12/25 20:29:31;;;;;;;9.05;3.35;;;2.20;99.90;;;;;;10483112;28;20063;-51
2020/12/25 20:34:52;;;;;;;4.45;2.13;;;2.20;99.90;;;;;;10471603;28;20029;-51
2020/12/25 20:40:13;;;;;;;12.93;3.78;;;2.10;99.90;;;;;;10456384;28;20044;-51
2020/12/25 20:45:34;;;;;;;7.95;3.28;;;2.10;99.90;;;;;;10464410;28;20049;-51
2020/12/25 20:50:55;;;;;;;7.72;3.75;;;2.00;99.90;;;;;;10478606;28;20033;-51
2020/12/25 20:56:18;;;;;;;8.98;3.60;;;2.00;99.90;;;;;;10466166;28;20037;-51
2020/12/25 21:01:39;;;;;;;8.68;4.15;;;2.00;99.90;;;;;;10476954;28;20037;-51
2020/12/25 21:07:00;;;;;;;11.98;4.13;;;2.00;99.90;;;;;;10468629;28;20033;-51
2020/12/25 21:12:21;;;;;;;6.72;3.53;;;1.90;99.90;;;;;;10479419;28;20036;-51
2020/12/25 21:17:42;;;;;;;9.02;3.65;;;1.90;99.90;;;;;;10481808;28;20029;-51
2020/12/25 21:23:03;;;;;;;7.63;1.92;;;1.80;99.90;;;;;;10482077;28;20036;-51
2020/12/25 21:28:24;;;;;;;6.95;2.42;;;1.80;99.90;;;;;;10482348;28;20040;-51
2020/12/25 21:33:45;;;;;;;5.57;1.95;;;1.80;99.90;;;;;;10482828;28;20037;-51
2020/12/25 21:39:08;;;;;;;11.30;2.92;;;1.80;99.90;;;;;;10482188;28;20052;-51
2020/12/25 21:44:28;;;;;;;4.57;2.17;;;1.80;99.90;;;;;;10460782;28;20516;-51
2020/12/25 21:49:49;;;;;;;4.78;2.03;;;1.90;99.90;;;;;;10464625;28;20108;-51
2020/12/25 21:55:10;;;;;;;5.28;2.40;;;1.90;99.90;;;;;;10437715;28;20470;-51
2020/12/25 22:00:31;;;;;;;5.05;1.95;;;1.90;99.90;;;;;;10453562;28;20127;-51
2020/12/25 22:05:53;;;;;;;4.90;2.67;;;2.00;99.90;;;;;;10480479;28;20056;-51
2020/12/25 22:11:14;;;;;;;7.70;1.83;;;2.10;99.90;;;;;;10480353;28;20086;-51
2020/12/25 22:16:34;;;;;;;4.10;1.52;;;2.20;99.90;;;;;;10481436;28;20105;-51
2020/12/25 22:21:55;;;;;;;4.60;2.33;;;2.30;99.90;;;;;;10481388;28;20045;-51
2020/12/25 22:27:16;;;;;;;2.83;1.67;;;2.40;99.90;;;;;;10482248;28;20029;-51
2020/12/25 22:32:37;;;;;;;2.92;1.63;;;2.50;99.90;;;;;;10487662;28;20048;-51
2020/12/25 22:37:58;;;;;;;5.75;2.45;;;2.60;99.90;;;;;;10455688;28;20068;-51
2020/12/25 22:43:19;;;;;;;5.10;2.55;;;2.60;99.90;;;;;;10472740;28;20045;-51
2020/12/25 22:48:41;;;;;;;7.28;2.53;;;2.60;99.90;;;;;;10472290;28;20037;-51
2020/12/25 22:54:02;;;;;;;8.68;2.45;;;2.60;99.90;;;;;;10486782;28;20113;-51
2020/12/25 22:59:23;;;;;;;5.45;2.30;;;2.60;99.90;;;;;;10477975;28;20064;-51
2020/12/25 23:04:44;;;;;;;6.80;2.40;;;2.70;99.90;;;;;;10470905;28;20075;-51
2020/12/25 23:10:06;;;;;;;4.47;2.20;;;2.80;99.90;;;;;;10481258;28;20396;-51
2020/12/25 23:15:28;;;;;;;3.90;2.10;;;2.80;99.90;;;;;;10456143;28;20041;-51
2020/12/25 23:20:49;;;;;;;4.47;2.45;;;2.90;99.90;;;;;;10486989;28;20041;-51
2020/12/25 23:26:18;;;;;;;8.95;2.45;;;2.90;99.90;;;;;;10459054;28;20098;-51
2020/12/25 23:31:39;;;;;;;8.50;2.63;;;3.00;99.90;;;;;;10485905;28;20060;-51
2020/12/25 23:37:00;;;;;;;5.90;1.85;;;3.00;99.90;;;;;;10473726;28;20048;-51
2020/12/25 23:42:21;;;;;;;4.72;2.13;;;3.00;99.90;;;;;;10480244;28;20080;-51
2020/12/25 23:47:42;;;;;;;4.15;1.40;;;3.00;99.90;;;;;;10462609;28;20752;-51
2020/12/25 23:53:03;;;;;;;2.33;1.10;;;3.20;99.90;;;;;;10485754;28;20036;-51
2020/12/25 23:58:24;;;;;;;3.85;2.00;;;3.20;99.90;;;;;;10483363;28;20029;-51
